CR5 weather

CLOSED Shortts Lake Water Aerodrome
Shortts Lake, Nova Scotia, Canada

Public forecast

Using degrees Celsius for public forecast. Weather courtesy of forecast.io.

Closest aviation weather report (METAR) to Shortts Lake Water Aerodrome

Closest report is Halifax / Stanfield International Airport, 22.8 nm (42.3 km) SSW. Retrieved 2020/07/12 09:33 UTC (17 minutes ago):

CYHZ 120933Z 18007KT 1/4SM R23/5500VP6000FT/D R14/P6000FT/D FG VV001 20/20 A2979 RMK FG8 SLP090 DENSITY ALT 1400FT

Closest aviation forecast (TAF) to Shortts Lake Water Aerodrome

Closest forecast is Halifax / Stanfield International Airport, 22.8 nm (42.3 km) SSW. Retrieved 2020/07/12 09:42 UTC (8 minutes ago):

TAF TAF CYHZ 120841Z 1209/1306 19010KT 11/2SM -SHRA BR OVC002 TEMPO 1209/1213 1/2SM -DZ FG VV001 PROB30 1209/1213 1/8SM FG VV001 FM121300 19015KT 3/4SM BR OVC003 FM121500 18015KT P6SM OVC005 FM121800 21015KT P6SM BKN008 FM130300 20012KT P6SM OVC005 TEMPO 1303/1306 1SM BR OVC003 RMK NXT FCST BY 121200Z